Time;durP1;ratioP1;P1;durP2;ratioP2;P2;SDS_P1;SDS_P2;PMS_P1;PMS_P2;Temp;Humidity;BMP_temperature;BMP_pressure;BME280_temperature;BME280_humidity;BME280_pressure;Samples;Min_cycle;Max_cycle;Signal;HPM_P1;HPM_P2
2022/05/25 00:02:25;;;;;;;0.30;0.10;;;12.80;99.90;;;;;;5079330;28;20462;-86
2022/05/25 00:04:54;;;;;;;0.30;0.20;;;12.90;99.90;;;;;;5087445;28;20479;-88
2022/05/25 00:07:25;;;;;;;0.30;0.17;;;12.80;99.90;;;;;;5087005;28;20453;-85
2022/05/25 00:09:53;;;;;;;0.30;0.20;;;12.80;99.90;;;;;;5082070;28;20455;-87
2022/05/25 00:12:21;;;;;;;0.30;0.20;;;12.80;99.90;;;;;;5080547;28;20543;-86
2022/05/25 00:14:51;;;;;;;0.30;0.20;;;12.80;99.90;;;;;;5083443;28;20463;-85
2022/05/25 00:17:20;;;;;;;0.30;0.10;;;12.90;99.90;;;;;;5080465;28;20467;-86
2022/05/25 00:20:03;;;;;;;0.30;0.20;;;12.80;99.90;;;;;;5084938;28;20567;-86
2022/05/25 00:22:40;;;;;;;0.30;0.20;;;12.80;99.90;;;;;;5087411;28;20492;-87
2022/05/25 00:25:10;;;;;;;0.30;0.20;;;12.80;99.90;;;;;;5086687;28;20465;-86
2022/05/25 00:27:38;;;;;;;0.30;0.20;;;12.70;99.90;;;;;;5081014;28;20459;-84
2022/05/25 00:30:08;;;;;;;0.30;0.20;;;12.80;99.90;;;;;;5083689;28;20451;-86
2022/05/25 00:32:36;;;;;;;0.30;0.20;;;12.80;99.90;;;;;;5079774;28;20468;-85
2022/05/25 00:35:03;;;;;;;0.30;0.20;;;12.80;99.90;;;;;;5085350;28;20455;-87
2022/05/25 00:37:31;;;;;;;0.30;0.20;;;12.90;99.90;;;;;;5079599;28;20823;-86
2022/05/25 00:40:00;;;;;;;0.30;0.20;;;12.90;99.90;;;;;;5086558;28;20457;-85
2022/05/25 00:42:27;;;;;;;0.30;0.20;;;13.00;99.90;;;;;;5078701;28;20469;-87
2022/05/25 00:44:55;;;;;;;0.30;0.20;;;13.00;99.90;;;;;;5084420;28;21264;-86
2022/05/25 00:47:27;;;;;;;0.30;0.10;;;13.10;99.90;;;;;;5084430;28;20492;-85
2022/05/25 00:49:54;;;;;;;0.30;0.20;;;13.20;99.90;;;;;;5084507;28;20638;-87
2022/05/25 00:52:22;;;;;;;0.50;0.50;;;13.20;99.90;;;;;;5086969;28;20462;-85
2022/05/25 00:54:54;;;;;;;0.30;0.20;;;13.30;99.90;;;;;;5086248;28;20459;-88
2022/05/25 00:57:25;;;;;;;0.30;0.20;;;13.30;99.90;;;;;;5087419;28;20461;-86
2022/05/25 01:00:00;;;;;;;0.30;0.10;;;13.30;99.90;;;;;;5084945;28;20465;-86
2022/05/25 01:02:30;;;;;;;0.30;0.20;;;13.30;99.90;;;;;;5088757;28;20463;-86
2022/05/25 01:04:58;;;;;;;0.30;0.20;;;13.30;99.90;;;;;;5085878;28;20480;-89
2022/05/25 01:07:57;;;;;;;0.30;0.20;;;13.40;99.90;;;;;;5094390;28;20462;-86
2022/05/25 01:10:37;;;;;;;0.30;0.20;;;13.40;99.90;;;;;;5082958;28;20480;-88
2022/05/25 01:13:20;;;;;;;0.30;0.17;;;13.40;99.90;;;;;;5083465;28;20491;-86
2022/05/25 01:15:56;;;;;;;0.30;0.20;;;13.20;99.90;;;;;;5081984;28;20481;-85
2022/05/25 01:18:35;;;;;;;0.30;0.10;;;13.30;99.90;;;;;;5080741;28;20458;-86
2022/05/25 01:21:06;;;;;;;0.37;0.30;;;13.20;99.90;;;;;;5081496;28;21154;-85
2022/05/25 01:23:58;;;;;;;0.30;0.20;;;13.20;99.90;;;;;;5083722;28;20540;-86
2022/05/25 01:26:58;;;;;;;0.30;0.20;;;13.30;99.90;;;;;;5078633;28;20493;-87
2022/05/25 01:29:55;;;;;;;0.30;0.20;;;13.20;99.90;;;;;;5083920;28;20938;-85
2022/05/25 01:32:31;;;;;;;0.30;0.20;;;13.10;99.90;;;;;;5083041;28;20799;-86
2022/05/25 01:35:07;;;;;;;0.30;0.20;;;13.00;99.90;;;;;;5086612;28;20463;-86
2022/05/25 01:37:42;;;;;;;0.30;0.20;;;13.00;99.90;;;;;;5079966;28;20457;-86
2022/05/25 01:40:16;;;;;;;0.40;0.20;;;13.00;99.90;;;;;;5080176;28;20981;-85
2022/05/25 01:42:48;;;;;;;0.30;0.20;;;13.10;99.90;;;;;;5079959;28;20480;-84
2022/05/25 01:45:17;;;;;;;0.30;0.20;;;13.10;99.90;;;;;;5081646;28;20599;-88
2022/05/25 01:47:50;;;;;;;0.30;0.20;;;13.10;99.90;;;;;;5084089;28;20458;-87
2022/05/25 01:50:22;;;;;;;0.30;0.20;;;13.10;99.90;;;;;;5080806;28;20493;-85
2022/05/25 01:52:53;;;;;;;0.30;0.20;;;13.10;99.90;;;;;;5087895;28;20430;-86
2022/05/25 01:55:25;;;;;;;0.30;0.20;;;13.10;99.90;;;;;;5086915;28;20458;-85
2022/05/25 01:57:57;;;;;;;0.30;0.20;;;13.20;99.90;;;;;;5085274;28;20493;-86
2022/05/25 02:00:33;;;;;;;0.30;0.20;;;13.30;99.90;;;;;;5080104;28;20463;-85
2022/05/25 02:05:57;;;;;;;0.30;0.20;;;13.10;99.90;;;;;;5080572;28;21068;-85
2022/05/25 02:08:36;;;;;;;0.30;0.20;;;13.10;99.90;;;;;;5081548;28;20438;-85
2022/05/25 02:11:16;;;;;;;0.30;0.20;;;13.10;99.90;;;;;;5084171;28;20445;-85
2022/05/25 02:14:02;;;;;;;0.30;0.20;;;13.10;99.90;;;;;;5082921;28;20453;-87
2022/05/25 02:16:44;;;;;;;0.30;0.20;;;13.00;99.90;;;;;;5086026;28;20479;-87
2022/05/25 02:19:18;;;;;;;0.30;0.20;;;13.10;99.90;;;;;;5083700;28;20470;-86
2022/05/25 02:21:53;;;;;;;0.30;0.20;;;13.10;99.90;;;;;;5080709;28;20489;-85
2022/05/25 02:24:28;;;;;;;0.30;0.20;;;13.00;99.90;;;;;;5082660;28;20489;-86
2022/05/25 02:27:01;;;;;;;0.30;0.20;;;12.90;99.90;;;;;;5083880;28;20456;-86
2022/05/25 02:29:34;;;;;;;0.30;0.20;;;13.00;99.90;;;;;;5087869;28;20495;-85
2022/05/25 02:32:08;;;;;;;0.30;0.20;;;12.90;99.90;;;;;;5084065;28;20467;-85
2022/05/25 02:34:36;;;;;;;0.30;0.10;;;12.90;99.90;;;;;;5081499;28;20477;-85
2022/05/25 02:37:05;;;;;;;0.30;0.20;;;12.90;99.90;;;;;;5085114;28;20460;-85
2022/05/25 02:39:33;;;;;;;0.30;0.20;;;12.90;99.90;;;;;;5082930;28;20915;-86
2022/05/25 02:42:01;;;;;;;0.30;0.20;;;12.90;99.90;;;;;;5081996;28;20468;-87
2022/05/25 02:44:28;;;;;;;0.30;0.20;;;12.90;99.90;;;;;;5083738;28;20771;-86
2022/05/25 02:46:56;;;;;;;0.30;0.20;;;12.90;99.90;;;;;;5084240;28;20735;-87
2022/05/25 02:49:25;;;;;;;0.30;0.10;;;12.90;99.90;;;;;;5080196;28;20485;-86
2022/05/25 02:51:52;;;;;;;0.30;0.20;;;12.80;99.90;;;;;;5083670;28;20822;-86
2022/05/25 02:54:22;;;;;;;0.30;0.10;;;12.80;99.90;;;;;;5085818;28;20462;-86
2022/05/25 02:56:49;;;;;;;0.30;0.20;;;12.80;99.90;;;;;;5085890;28;21023;-86
2022/05/25 02:59:17;;;;;;;0.30;0.20;;;12.80;99.90;;;;;;5086078;28;20505;-86
2022/05/25 03:01:44;;;;;;;0.30;0.20;;;12.80;99.90;;;;;;5084529;28;20465;-85
2022/05/25 03:04:12;;;;;;;0.30;0.20;;;12.80;99.90;;;;;;5081774;28;20461;-86
2022/05/25 03:06:41;;;;;;;0.30;0.20;;;12.80;99.90;;;;;;5079622;28;20801;-86
2022/05/25 03:09:08;;;;;;;0.30;0.20;;;12.90;99.90;;;;;;5083071;28;20502;-86
2022/05/25 03:11:35;;;;;;;0.30;0.20;;;13.10;99.90;;;;;;5082170;28;20439;-86
2022/05/25 03:14:03;;;;;;;0.30;0.20;;;13.10;99.90;;;;;;5083790;28;20482;-85
2022/05/25 03:16:31;;;;;;;0.30;0.20;;;13.10;99.90;;;;;;5085762;28;20878;-86
2022/05/25 03:18:59;;;;;;;0.30;0.20;;;13.20;99.90;;;;;;5085402;28;20461;-85
2022/05/25 03:21:26;;;;;;;0.30;0.20;;;13.20;99.90;;;;;;5083573;28;21185;-86
2022/05/25 03:23:55;;;;;;;0.30;0.17;;;13.10;99.90;;;;;;5087142;28;20864;-86
2022/05/25 03:26:23;;;;;;;0.30;0.20;;;13.20;99.90;;;;;;5085307;28;20486;-86
2022/05/25 03:28:50;;;;;;;0.30;0.20;;;13.20;99.90;;;;;;5083459;28;21056;-87
2022/05/25 03:31:18;;;;;;;0.30;0.20;;;13.30;99.90;;;;;;5089133;27;20457;-86
2022/05/25 03:33:45;;;;;;;0.30;0.20;;;13.10;99.90;;;;;;5080570;28;21179;-86
2022/05/25 03:36:12;;;;;;;0.30;0.20;;;13.10;99.90;;;;;;5081212;28;20991;-89
2022/05/25 03:38:40;;;;;;;0.30;0.20;;;13.10;99.90;;;;;;5084526;28;20466;-86
2022/05/25 03:41:09;;;;;;;0.30;0.20;;;13.10;99.90;;;;;;5091948;28;20438;-87
2022/05/25 03:43:39;;;;;;;0.30;0.20;;;13.10;99.90;;;;;;5085461;28;21073;-86
2022/05/25 03:46:07;;;;;;;0.30;0.20;;;13.20;99.90;;;;;;5083729;28;21067;-86
2022/05/25 03:48:34;;;;;;;0.30;0.20;;;13.10;99.90;;;;;;5081393;28;20465;-87
2022/05/25 03:51:02;;;;;;;0.30;0.20;;;13.00;99.90;;;;;;5083201;28;20530;-85
2022/05/25 03:53:30;;;;;;;0.30;0.20;;;13.00;99.90;;;;;;5082904;28;21150;-86
2022/05/25 03:55:57;;;;;;;0.40;0.27;;;13.10;99.90;;;;;;5080551;28;20468;-85
2022/05/25 03:58:26;;;;;;;0.30;0.20;;;13.10;99.90;;;;;;5080896;28;21153;-87
2022/05/25 04:00:54;;;;;;;0.30;0.20;;;13.10;99.90;;;;;;5080582;28;21041;-85
2022/05/25 04:03:22;;;;;;;0.30;0.20;;;13.10;99.90;;;;;;5082356;28;20940;-87
2022/05/25 04:05:49;;;;;;;0.30;0.20;;;13.20;99.90;;;;;;5082355;28;20481;-85
2022/05/25 04:08:17;;;;;;;0.30;0.20;;;13.30;99.90;;;;;;5080142;28;21001;-85
2022/05/25 04:10:45;;;;;;;0.30;0.20;;;13.30;99.90;;;;;;5078906;28;21175;-86
2022/05/25 04:13:13;;;;;;;0.30;0.20;;;13.20;99.90;;;;;;5081592;28;20484;-86
2022/05/25 04:15:42;;;;;;;0.30;0.20;;;13.20;99.90;;;;;;5080829;28;20862;-85
2022/05/25 04:18:10;;;;;;;0.30;0.20;;;13.20;99.90;;;;;;5082367;28;20517;-86
2022/05/25 04:20:38;;;;;;;0.30;0.20;;;13.20;99.90;;;;;;5078801;28;21184;-86
2022/05/25 04:23:11;;;;;;;0.30;0.20;;;13.10;99.90;;;;;;5081487;28;21321;-85
2022/05/25 04:25:40;;;;;;;0.30;0.20;;;13.10;99.90;;;;;;5083336;28;20576;-88
2022/05/25 04:28:08;;;;;;;0.30;0.20;;;13.20;99.90;;;;;;5080700;28;20588;-85
2022/05/25 04:30:36;;;;;;;0.30;0.20;;;13.20;99.90;;;;;;5080966;28;21191;-88
2022/05/25 04:33:05;;;;;;;0.30;0.20;;;13.30;99.90;;;;;;5082812;28;20979;-86
2022/05/25 04:35:35;;;;;;;0.30;0.20;;;13.40;99.90;;;;;;5080046;28;20454;-85
2022/05/25 04:38:03;;;;;;;0.30;0.30;;;13.50;99.90;;;;;;5083379;28;20460;-84
2022/05/25 04:40:32;;;;;;;0.30;0.20;;;13.60;99.90;;;;;;5083267;28;21191;-84
2022/05/25 04:43:05;;;;;;;0.30;0.20;;;13.80;99.90;;;;;;5085840;28;20457;-83
2022/05/25 04:45:33;;;;;;;0.30;0.20;;;13.80;99.90;;;;;;5081284;28;20822;-85
2022/05/25 04:48:02;;;;;;;0.30;0.20;;;13.90;99.90;;;;;;5071859;28;20459;-84
2022/05/25 04:50:34;;;;;;;0.30;0.20;;;14.00;99.90;;;;;;5082749;28;20569;-85
2022/05/25 04:53:02;;;;;;;0.30;0.20;;;14.20;99.90;;;;;;5086647;28;20484;-86
2022/05/25 04:58:20;;;;;;;0.30;0.20;;;14.30;99.90;;;;;;5083518;28;20587;-87
2022/05/25 05:00:50;;;;;;;0.30;0.20;;;14.20;99.90;;;;;;5083243;28;20463;-86
2022/05/25 05:03:20;;;;;;;1.10;1.07;;;14.20;99.90;;;;;;5079681;28;20488;-84
2022/05/25 05:05:51;;;;;;;0.30;0.20;;;14.30;99.90;;;;;;5069238;28;20527;-85
2022/05/25 05:08:19;;;;;;;0.30;0.20;;;14.30;99.90;;;;;;5073010;28;21162;-85
2022/05/25 05:10:46;;;;;;;0.30;0.20;;;14.40;99.90;;;;;;5070604;28;20544;-85
2022/05/25 05:13:14;;;;;;;0.30;0.20;;;14.60;99.90;;;;;;5070349;28;20467;-85
2022/05/25 05:15:44;;;;;;;0.30;0.20;;;14.80;99.90;;;;;;5077412;28;20964;-85
2022/05/25 05:18:11;;;;;;;0.30;0.20;;;14.70;99.90;;;;;;5074107;28;20922;-84
2022/05/25 05:20:41;;;;;;;0.30;0.20;;;14.90;99.90;;;;;;5074409;28;20448;-85
2022/05/25 05:23:10;;;;;;;0.30;0.20;;;14.90;99.90;;;;;;5076938;28;20487;-84
2022/05/25 05:25:46;;;;;;;0.30;0.20;;;14.90;99.90;;;;;;5072012;28;20501;-84
2022/05/25 05:28:21;;;;;;;0.30;0.20;;;15.00;99.90;;;;;;5075593;28;20499;-84
2022/05/25 05:30:56;;;;;;;0.30;0.20;;;15.20;99.90;;;;;;5074380;28;20452;-86
2022/05/25 05:33:24;;;;;;;0.30;0.20;;;15.40;99.90;;;;;;5077423;28;20565;-85
2022/05/25 05:35:54;;;;;;;0.30;0.20;;;15.50;99.90;;;;;;5071905;28;20458;-87
2022/05/25 05:38:24;;;;;;;0.30;0.30;;;15.70;99.90;;;;;;5074597;28;20455;-85
2022/05/25 05:40:53;;;;;;;0.40;0.20;;;15.50;99.90;;;;;;5071952;28;20563;-88
2022/05/25 05:43:21;;;;;;;0.30;0.20;;;15.80;99.90;;;;;;5080843;28;20461;-85
2022/05/25 05:45:51;;;;;;;0.30;0.20;;;16.00;99.90;;;;;;5076078;28;20473;-85
2022/05/25 05:48:21;;;;;;;0.30;0.20;;;16.20;99.90;;;;;;5080245;28;20454;-86
2022/05/25 05:50:51;;;;;;;1.10;0.40;;;16.00;99.90;;;;;;5082397;28;20530;-84
2022/05/25 05:53:19;;;;;;;0.30;0.20;;;16.00;99.90;;;;;;5082454;28;20466;-85
2022/05/25 05:55:49;;;;;;;0.30;0.20;;;15.90;99.90;;;;;;5074793;28;20454;-85
2022/05/25 05:58:17;;;;;;;0.30;0.20;;;16.00;99.90;;;;;;5081234;28;20467;-82
2022/05/25 06:00:44;;;;;;;0.30;0.20;;;16.30;99.90;;;;;;5080842;28;20989;-87
2022/05/25 06:03:17;;;;;;;0.30;0.20;;;15.90;99.90;;;;;;5086351;28;20462;-84
2022/05/25 06:05:45;;;;;;;0.30;0.20;;;15.70;99.90;;;;;;5082424;28;20493;-86
2022/05/25 06:08:15;;;;;;;0.30;0.20;;;15.70;99.90;;;;;;5084522;28;20468;-84
2022/05/25 06:10:43;;;;;;;1.07;1.07;;;15.60;99.90;;;;;;5080213;28;20551;-84
2022/05/25 06:13:12;;;;;;;0.40;0.30;;;15.70;99.90;;;;;;5085188;28;20466;-84
2022/05/25 06:21:16;;;;;;;0.30;0.20;;;15.80;99.90;;;;;;5085694;28;20546;-85
2022/05/25 06:23:43;;;;;;;0.47;0.20;;;15.60;99.90;;;;;;5083620;28;20468;-87
2022/05/25 06:26:25;;;;;;;0.30;0.20;;;15.50;99.90;;;;;;5077096;28;20481;-84
2022/05/25 06:28:54;;;;;;;0.30;0.20;;;15.40;99.90;;;;;;5078718;28;20454;-84
2022/05/25 06:31:22;;;;;;;0.80;0.40;;;15.40;99.90;;;;;;5083531;28;20469;-86
2022/05/25 06:33:49;;;;;;;0.30;0.20;;;15.20;99.90;;;;;;5081751;28;20860;-83
2022/05/25 06:36:19;;;;;;;0.30;0.20;;;15.20;99.90;;;;;;5082613;28;20467;-86
2022/05/25 06:38:47;;;;;;;0.40;0.30;;;15.20;99.90;;;;;;5088111;28;20826;-86
2022/05/25 06:41:15;;;;;;;0.30;0.20;;;15.20;99.90;;;;;;5085199;28;21172;-86
2022/05/25 06:43:43;;;;;;;0.73;0.47;;;15.20;99.90;;;;;;5081418;28;20968;-88
2022/05/25 06:46:14;;;;;;;0.30;0.20;;;15.10;99.90;;;;;;5079231;28;20479;-89
2022/05/25 06:48:41;;;;;;;0.30;0.20;;;15.10;99.90;;;;;;5074033;28;20463;-87
2022/05/25 06:51:12;;;;;;;2.00;0.53;;;15.10;99.90;;;;;;5077638;28;20645;-88
2022/05/25 06:53:40;;;;;;;0.30;0.20;;;15.20;99.90;;;;;;5077010;28;20467;-92
2022/05/25 06:56:08;;;;;;;0.30;0.30;;;15.20;99.90;;;;;;5082827;28;20499;-87
2022/05/25 06:58:36;;;;;;;0.30;0.20;;;15.30;99.90;;;;;;5088811;28;20463;-88
2022/05/25 07:01:04;;;;;;;0.50;0.40;;;15.20;99.90;;;;;;5084037;28;20474;-88
2022/05/25 07:03:33;;;;;;;0.30;0.20;;;15.20;99.90;;;;;;5082870;28;20462;-88
2022/05/25 07:06:04;;;;;;;1.13;1.13;;;15.10;99.90;;;;;;5082659;28;20481;-86
2022/05/25 07:08:32;;;;;;;0.30;0.20;;;14.90;99.90;;;;;;5085691;28;21136;-88
2022/05/25 07:11:00;;;;;;;0.30;0.20;;;14.90;99.90;;;;;;5085101;28;20811;-88
2022/05/25 07:13:29;;;;;;;0.30;0.20;;;14.80;99.90;;;;;;5086970;28;20458;-88
2022/05/25 07:15:57;;;;;;;0.30;0.20;;;14.80;99.90;;;;;;5083228;28;20459;-88
2022/05/25 07:18:26;;;;;;;0.90;0.90;;;14.80;99.90;;;;;;5084531;28;20470;-88
2022/05/25 07:20:58;;;;;;;0.30;0.20;;;14.80;99.90;;;;;;5084517;28;20439;-88
2022/05/25 07:23:25;;;;;;;0.30;0.20;;;14.70;99.90;;;;;;5085485;28;20842;-89
2022/05/25 07:25:53;;;;;;;0.30;0.20;;;14.70;99.90;;;;;;5085186;28;20462;-89
2022/05/25 07:28:20;;;;;;;0.83;0.77;;;14.70;99.90;;;;;;5083475;28;21025;-90
2022/05/25 07:30:51;;;;;;;0.30;0.20;;;14.60;99.90;;;;;;5084759;28;20470;-89
2022/05/25 07:33:18;;;;;;;0.50;0.20;;;14.50;99.90;;;;;;5079815;28;20468;-89
2022/05/25 07:35:46;;;;;;;0.30;0.20;;;14.50;99.90;;;;;;5086491;28;20450;-89
2022/05/25 07:38:16;;;;;;;0.30;0.20;;;14.50;99.90;;;;;;5084157;28;20462;-88
2022/05/25 07:40:45;;;;;;;0.30;0.20;;;14.40;99.90;;;;;;5083773;28;20981;-88
2022/05/25 07:43:15;;;;;;;0.30;0.20;;;14.40;99.90;;;;;;5075399;28;20521;-88
2022/05/25 07:45:45;;;;;;;0.30;0.20;;;14.50;99.90;;;;;;5081352;28;20585;-89
2022/05/25 07:48:13;;;;;;;0.30;0.20;;;14.40;99.90;;;;;;5078361;28;20482;-89
2022/05/25 07:50:42;;;;;;;0.30;0.20;;;14.50;99.90;;;;;;5079462;28;20463;-89
2022/05/25 07:55:54;;;;;;;0.40;0.20;;;14.50;99.90;;;;;;5081057;28;20458;-88
2022/05/25 07:58:22;;;;;;;0.30;0.20;;;14.60;99.90;;;;;;5080026;28;20454;-89
2022/05/25 08:00:52;;;;;;;0.30;0.20;;;14.70;99.90;;;;;;5085707;28;20476;-89
2022/05/25 08:06:06;;;;;;;0.30;0.20;;;14.80;99.90;;;;;;5080108;28;20988;-89
2022/05/25 08:08:33;;;;;;;0.30;0.20;;;14.90;99.90;;;;;;5079338;28;20490;-90
2022/05/25 08:11:07;;;;;;;0.30;0.20;;;14.90;99.90;;;;;;5077542;28;20462;-89
2022/05/25 08:13:36;;;;;;;0.30;0.20;;;14.80;99.90;;;;;;5065030;28;20451;-89
2022/05/25 08:16:04;;;;;;;0.40;0.30;;;14.80;99.90;;;;;;5079170;28;20501;-89
2022/05/25 08:18:33;;;;;;;1.83;1.10;;;14.70;99.90;;;;;;5073819;28;20463;-89
2022/05/25 08:21:00;;;;;;;1.00;0.43;;;14.70;99.90;;;;;;5081528;28;20982;-86
2022/05/25 08:23:28;;;;;;;2.00;1.90;;;14.80;99.90;;;;;;5077735;28;20479;-85
2022/05/25 08:25:55;;;;;;;0.30;0.20;;;14.90;99.90;;;;;;5085070;28;20452;-85
2022/05/25 08:28:24;;;;;;;0.30;0.20;;;14.80;99.90;;;;;;5084559;28;20482;-87
2022/05/25 08:30:52;;;;;;;0.30;0.20;;;14.70;99.90;;;;;;5085631;28;21129;-85
2022/05/25 08:33:21;;;;;;;0.30;0.20;;;14.60;99.90;;;;;;5081676;28;20458;-85
2022/05/25 08:35:49;;;;;;;0.30;0.20;;;14.50;99.90;;;;;;5086866;28;20823;-85
2022/05/25 08:38:21;;;;;;;0.30;0.20;;;14.50;99.90;;;;;;5081490;28;20467;-86
2022/05/25 08:40:51;;;;;;;0.30;0.20;;;14.50;99.90;;;;;;5077991;28;20460;-88
2022/05/25 08:43:24;;;;;;;0.40;0.30;;;14.50;99.90;;;;;;5073760;28;20934;-86
2022/05/25 08:45:58;;;;;;;0.93;0.93;;;14.40;99.90;;;;;;5083578;28;20457;-87
2022/05/25 08:48:27;;;;;;;0.30;0.20;;;14.40;99.90;;;;;;5082839;28;20522;-86
2022/05/25 08:51:03;;;;;;;0.30;0.20;;;14.40;99.90;;;;;;5067547;28;20474;-87
2022/05/25 08:53:37;;;;;;;0.30;0.20;;;14.30;99.90;;;;;;5078435;28;20464;-86
2022/05/25 08:56:15;;;;;;;0.70;0.70;;;14.30;99.90;;;;;;5083717;28;20454;-87
2022/05/25 08:58:47;;;;;;;0.60;0.33;;;14.30;99.90;;;;;;5078601;28;20457;-86
2022/05/25 09:01:26;;;;;;;0.40;0.40;;;14.20;99.90;;;;;;5079964;28;20948;-86
2022/05/25 09:04:03;;;;;;;0.80;0.80;;;14.20;99.90;;;;;;5078548;28;20469;-85
2022/05/25 09:06:39;;;;;;;0.30;0.20;;;14.10;99.90;;;;;;5081268;28;20472;-86
2022/05/25 09:09:10;;;;;;;0.30;0.20;;;14.10;99.90;;;;;;5076666;28;20822;-86
2022/05/25 09:11:43;;;;;;;0.40;0.30;;;14.10;99.90;;;;;;5074080;28;20466;-86
2022/05/25 09:14:18;;;;;;;0.30;0.20;;;14.10;99.90;;;;;;5073237;28;20471;-87
2022/05/25 09:16:53;;;;;;;0.30;0.20;;;14.20;99.90;;;;;;5075986;28;20492;-86
2022/05/25 09:19:23;;;;;;;0.30;0.20;;;14.10;99.90;;;;;;5079483;28;20985;-86
2022/05/25 09:21:55;;;;;;;0.30;0.20;;;14.00;99.90;;;;;;5082008;28;20496;-88
2022/05/25 09:24:26;;;;;;;0.30;0.20;;;14.00;99.90;;;;;;5082828;28;21080;-88
2022/05/25 09:26:53;;;;;;;0.30;0.20;;;13.90;99.90;;;;;;5084870;28;20467;-86
2022/05/25 09:29:23;;;;;;;0.30;0.20;;;13.80;99.90;;;;;;5085063;28;20600;-86
2022/05/25 09:31:54;;;;;;;0.30;0.20;;;13.90;99.90;;;;;;5080848;28;20486;-88
2022/05/25 09:34:34;;;;;;;0.30;0.20;;;13.90;99.90;;;;;;5075892;28;20471;-85
2022/05/25 09:37:09;;;;;;;0.43;0.43;;;13.70;99.90;;;;;;5080200;28;20804;-88
2022/05/25 09:39:42;;;;;;;0.73;0.73;;;13.50;99.90;;;;;;5079731;28;20521;-88
2022/05/25 09:42:15;;;;;;;0.30;0.20;;;13.60;99.90;;;;;;5080862;28;20457;-87
2022/05/25 09:44:43;;;;;;;0.30;0.20;;;13.50;99.90;;;;;;5078967;28;20806;-88
2022/05/25 09:47:20;;;;;;;0.30;0.20;;;13.50;99.90;;;;;;5077825;28;20493;-87
2022/05/25 09:49:50;;;;;;;0.30;0.20;;;13.50;99.90;;;;;;5077662;28;20465;-83
2022/05/25 09:52:22;;;;;;;0.40;0.40;;;13.40;99.90;;;;;;5078475;28;20464;-86
2022/05/25 09:54:57;;;;;;;0.30;0.30;;;13.40;99.90;;;;;;5079007;28;20458;-86
2022/05/25 09:57:30;;;;;;;0.30;0.20;;;13.30;99.90;;;;;;5084767;28;21294;-87
2022/05/25 10:00:03;;;;;;;0.30;0.20;;;13.40;99.90;;;;;;5083718;28;21110;-87
2022/05/25 10:02:48;;;;;;;0.30;0.10;;;13.60;99.90;;;;;;5080657;28;20534;-86
2022/05/25 10:05:19;;;;;;;0.30;0.20;;;13.60;99.90;;;;;;5080770;28;20457;-86
2022/05/25 10:07:56;;;;;;;0.30;0.20;;;13.70;99.90;;;;;;5077504;28;20516;-87
2022/05/25 10:10:33;;;;;;;0.30;0.20;;;13.90;99.90;;;;;;5081486;28;20740;-87
2022/05/25 10:13:03;;;;;;;0.30;0.20;;;14.20;99.90;;;;;;5076862;28;20456;-87
2022/05/25 10:15:34;;;;;;;0.30;0.20;;;14.40;99.90;;;;;;5083157;28;20441;-86
2022/05/25 10:18:04;;;;;;;0.30;0.20;;;14.70;99.90;;;;;;5078817;28;20547;-87
2022/05/25 10:20:35;;;;;;;0.30;0.10;;;14.60;99.90;;;;;;5077118;28;20546;-89
2022/05/25 10:23:10;;;;;;;0.30;0.20;;;14.50;99.90;;;;;;5076294;28;20590;-89
2022/05/25 10:25:43;;;;;;;0.80;0.60;;;14.70;99.90;;;;;;5083197;28;20453;-89
2022/05/25 10:28:22;;;;;;;0.30;0.20;;;14.50;99.90;;;;;;5076290;28;20482;-89
2022/05/25 10:36:49;;;;;;;0.30;0.20;;;14.60;99.90;;;;;;5072808;28;20473;-89
2022/05/25 10:39:21;;;;;;;1.07;1.07;;;14.60;99.90;;;;;;5076195;28;20548;-90
2022/05/25 10:42:01;;;;;;;0.30;0.20;;;14.70;99.90;;;;;;5076009;28;20938;-89
2022/05/25 10:44:36;;;;;;;0.30;0.20;;;14.70;99.90;;;;;;5081181;28;20458;-89
2022/05/25 10:47:04;;;;;;;0.30;0.20;;;14.60;99.90;;;;;;5082265;28;20527;-89
2022/05/25 10:49:38;;;;;;;0.30;0.20;;;14.60;99.90;;;;;;5083674;28;20486;-91
2022/05/25 10:52:09;;;;;;;0.30;0.20;;;14.50;99.90;;;;;;5085244;28;21121;-89
2022/05/25 10:54:52;;;;;;;0.30;0.20;;;14.40;99.90;;;;;;5080693;28;20464;-89
2022/05/25 10:57:45;;;;;;;0.30;0.20;;;14.30;99.90;;;;;;5071968;28;20512;-89
2022/05/25 11:00:17;;;;;;;0.30;0.20;;;14.40;99.90;;;;;;5084778;28;20438;-88
2022/05/25 11:03:08;;;;;;;0.30;0.20;;;14.40;99.90;;;;;;5077103;28;20475;-90
2022/05/25 11:05:45;;;;;;;0.30;0.20;;;14.50;99.90;;;;;;5085194;28;20458;-89
2022/05/25 11:08:22;;;;;;;0.30;0.20;;;14.40;99.90;;;;;;5088260;28;21219;-89
2022/05/25 11:10:56;;;;;;;0.30;0.20;;;14.50;99.90;;;;;;5085025;28;20979;-89
2022/05/25 11:13:52;;;;;;;0.30;0.20;;;14.70;99.90;;;;;;5076187;28;20454;-88
2022/05/25 11:16:34;;;;;;;0.30;0.20;;;14.90;99.90;;;;;;5072044;28;20469;-88
2022/05/25 11:19:21;;;;;;;0.30;0.20;;;15.10;99.90;;;;;;5072696;28;20856;-89
2022/05/25 11:21:59;;;;;;;0.30;0.20;;;15.30;99.90;;;;;;5070588;28;20473;-89
2022/05/25 11:24:50;;;;;;;0.40;0.30;;;15.30;99.90;;;;;;5072515;28;20464;-89
2022/05/25 11:27:34;;;;;;;0.30;0.20;;;15.60;99.90;;;;;;5074212;28;20456;-88
2022/05/25 11:30:08;;;;;;;0.30;0.20;;;15.90;99.90;;;;;;5078085;28;20538;-88
2022/05/25 11:32:55;;;;;;;0.30;0.20;;;15.90;99.90;;;;;;5080086;28;20474;-88
2022/05/25 11:35:42;;;;;;;0.30;0.20;;;15.80;99.90;;;;;;5075011;28;20940;-88
2022/05/25 11:38:24;;;;;;;0.30;0.20;;;15.80;99.90;;;;;;5087144;28;20574;-90
2022/05/25 11:41:09;;;;;;;0.30;0.20;;;15.70;99.90;;;;;;5073805;28;20459;-86
2022/05/25 11:44:08;;;;;;;0.30;0.20;;;15.60;99.90;;;;;;5081976;28;20531;-86
2022/05/25 11:46:42;;;;;;;0.30;0.20;;;15.40;99.90;;;;;;5070743;28;20565;-87
2022/05/25 11:49:33;;;;;;;0.30;0.20;;;15.30;99.90;;;;;;5078876;28;20484;-87
2022/05/25 11:52:09;;;;;;;0.30;0.20;;;15.10;99.90;;;;;;5082421;28;20466;-87
2022/05/25 11:54:50;;;;;;;0.30;0.20;;;15.10;99.90;;;;;;5081636;28;20457;-87
2022/05/25 11:57:23;;;;;;;0.30;0.20;;;15.10;99.90;;;;;;5084272;28;20509;-89
2022/05/25 12:00:10;;;;;;;0.30;0.20;;;15.10;99.90;;;;;;5085621;28;20455;-86
2022/05/25 12:03:03;;;;;;;0.30;0.20;;;15.10;99.90;;;;;;5074230;28;20453;-87
2022/05/25 12:05:40;;;;;;;0.30;0.20;;;15.20;99.90;;;;;;5081157;28;21130;-86
2022/05/25 12:08:34;;;;;;;0.30;0.20;;;15.30;99.90;;;;;;5082793;28;20490;-86
2022/05/25 12:11:11;;;;;;;0.30;0.20;;;15.30;99.90;;;;;;5072855;28;20454;-87
2022/05/25 12:13:45;;;;;;;0.30;0.20;;;15.20;99.90;;;;;;5080661;28;20447;-86
2022/05/25 12:16:18;;;;;;;0.30;0.20;;;15.30;99.90;;;;;;5085967;28;20534;-87
2022/05/25 12:18:53;;;;;;;0.30;0.20;;;15.40;99.90;;;;;;5083297;28;20462;-87
2022/05/25 12:21:24;;;;;;;0.50;0.20;;;15.20;99.90;;;;;;5083513;28;20459;-86
2022/05/25 12:23:56;;;;;;;0.30;0.20;;;15.20;99.90;;;;;;5084589;28;20553;-86
2022/05/25 12:26:27;;;;;;;0.30;0.20;;;15.10;99.90;;;;;;5086438;28;20543;-86
2022/05/25 12:29:09;;;;;;;0.30;0.20;;;15.10;99.90;;;;;;5085978;28;20691;-85
2022/05/25 12:31:37;;;;;;;0.30;0.20;;;15.00;99.90;;;;;;5077641;28;20530;-85
2022/05/25 12:34:06;;;;;;;0.30;0.20;;;15.20;99.90;;;;;;5083214;28;20447;-85
2022/05/25 12:36:33;;;;;;;0.30;0.20;;;15.00;99.90;;;;;;5085459;28;20462;-86
2022/05/25 12:39:00;;;;;;;0.30;0.20;;;15.00;99.90;;;;;;5090028;28;20542;-85
2022/05/25 12:41:38;;;;;;;0.30;0.20;;;14.90;99.90;;;;;;5091749;28;20459;-88
2022/05/25 12:49:59;;;;;;;0.30;0.20;;;15.00;99.90;;;;;;5088547;28;20485;-88
2022/05/25 12:52:41;;;;;;;0.30;0.20;;;14.90;99.90;;;;;;5092451;28;20457;-86
2022/05/25 12:55:19;;;;;;;0.30;0.20;;;14.90;99.90;;;;;;5085784;28;20504;-86
2022/05/25 12:57:51;;;;;;;0.30;0.20;;;14.90;99.90;;;;;;5084964;28;20450;-86
2022/05/25 13:00:23;;;;;;;0.30;0.20;;;14.80;99.90;;;;;;5084241;28;20928;-88
2022/05/25 13:02:51;;;;;;;0.30;0.20;;;15.10;99.90;;;;;;5076749;28;20815;-85
2022/05/25 13:05:53;;;;;;;0.30;0.20;;;15.20;99.90;;;;;;5072655;28;20461;-85
2022/05/25 13:09:07;;;;;;;0.30;0.20;;;15.00;99.90;;;;;;5072764;28;20545;-86
2022/05/25 13:11:41;;;;;;;0.30;0.20;;;15.20;99.90;;;;;;5078257;28;20867;-85
2022/05/25 13:14:57;;;;;;;0.30;0.20;;;15.10;99.90;;;;;;5081085;28;20450;-86
2022/05/25 13:17:45;;;;;;;0.30;0.20;;;15.40;99.90;;;;;;5056354;28;20479;-85
2022/05/25 13:20:50;;;;;;;0.30;0.20;;;15.40;99.90;;;;;;5085906;28;20766;-86
2022/05/25 13:23:54;;;;;;;0.30;0.20;;;15.30;99.90;;;;;;5079169;28;20493;-86
2022/05/25 13:26:33;;;;;;;0.30;0.20;;;15.40;99.90;;;;;;5078191;28;20469;-85
2022/05/25 13:29:09;;;;;;;0.30;0.20;;;15.10;99.90;;;;;;5085427;28;20487;-87
2022/05/25 13:31:45;;;;;;;0.30;0.20;;;15.20;99.90;;;;;;5079726;28;20501;-85
2022/05/25 13:34:19;;;;;;;0.30;0.20;;;15.00;99.90;;;;;;5080951;28;20525;-85
2022/05/25 13:36:51;;;;;;;0.30;0.20;;;15.10;99.90;;;;;;5081324;28;20450;-85
2022/05/25 13:39:21;;;;;;;0.30;0.20;;;15.30;99.90;;;;;;5088204;28;21125;-85
2022/05/25 13:41:56;;;;;;;0.30;0.20;;;15.60;99.90;;;;;;5083102;28;20941;-87
2022/05/25 13:44:26;;;;;;;0.30;0.20;;;15.80;99.90;;;;;;5082334;28;20427;-86
2022/05/25 13:46:56;;;;;;;0.30;0.20;;;16.10;99.90;;;;;;5085513;28;20735;-87